sensor_id;sensor_type;location;lat;lon;timestamp;temperature;humidity
42019;DHT22;27703;51.980;5.848;2023-10-19T00:00:56;10.90;99.90
42019;DHT22;27703;51.980;5.848;2023-10-19T00:03:23;11.00;99.90
42019;DHT22;27703;51.980;5.848;2023-10-19T00:05:49;11.00;99.90
42019;DHT22;27703;51.980;5.848;2023-10-19T00:08:15;11.00;99.90
42019;DHT22;27703;51.980;5.848;2023-10-19T00:10:44;11.00;99.90
42019;DHT22;27703;51.980;5.848;2023-10-19T00:13:11;11.00;99.90
42019;DHT22;27703;51.980;5.848;2023-10-19T00:15:38;11.10;99.90
42019;DHT22;27703;51.980;5.848;2023-10-19T00:18:14;11.10;99.90
42019;DHT22;27703;51.980;5.848;2023-10-19T00:20:46;11.10;99.90
42019;DHT22;27703;51.980;5.848;2023-10-19T00:23:13;11.20;99.90
42019;DHT22;27703;51.980;5.848;2023-10-19T00:25:39;11.20;99.90
42019;DHT22;27703;51.980;5.848;2023-10-19T00:28:07;11.20;99.90
42019;DHT22;27703;51.980;5.848;2023-10-19T00:30:32;11.20;99.90
42019;DHT22;27703;51.980;5.848;2023-10-19T00:33:04;11.20;99.90
42019;DHT22;27703;51.980;5.848;2023-10-19T00:35:30;11.30;99.90
42019;DHT22;27703;51.980;5.848;2023-10-19T00:38:02;11.30;99.90
42019;DHT22;27703;51.980;5.848;2023-10-19T00:40:55;11.40;99.90
42019;DHT22;27703;51.980;5.848;2023-10-19T00:43:35;11.40;99.90
42019;DHT22;27703;51.980;5.848;2023-10-19T00:46:09;11.40;99.90
42019;DHT22;27703;51.980;5.848;2023-10-19T00:48:52;11.40;99.90
42019;DHT22;27703;51.980;5.848;2023-10-19T00:51:28;11.50;99.90
42019;DHT22;27703;51.980;5.848;2023-10-19T00:54:27;11.50;99.90
42019;DHT22;27703;51.980;5.848;2023-10-19T00:57:00;11.50;99.90
42019;DHT22;27703;51.980;5.848;2023-10-19T00:59:30;11.50;99.90
42019;DHT22;27703;51.980;5.848;2023-10-19T01:01:56;11.50;99.90
42019;DHT22;27703;51.980;5.848;2023-10-19T01:04:41;11.60;99.90
42019;DHT22;27703;51.980;5.848;2023-10-19T01:07:09;11.50;99.90
42019;DHT22;27703;51.980;5.848;2023-10-19T01:09:42;11.60;99.90
42019;DHT22;27703;51.980;5.848;2023-10-19T01:12:09;11.60;99.90
42019;DHT22;27703;51.980;5.848;2023-10-19T01:15:09;11.60;99.90
42019;DHT22;27703;51.980;5.848;2023-10-19T01:17:57;11.60;99.90
42019;DHT22;27703;51.980;5.848;2023-10-19T01:20:25;11.60;99.90
42019;DHT22;27703;51.980;5.848;2023-10-19T01:25:44;11.60;99.90
42019;DHT22;27703;51.980;5.848;2023-10-19T01:28:15;11.70;99.90
42019;DHT22;27703;51.980;5.848;2023-10-19T01:30:45;11.60;99.90
42019;DHT22;27703;51.980;5.848;2023-10-19T01:33:11;11.70;99.90
42019;DHT22;27703;51.980;5.848;2023-10-19T01:35:41;11.70;99.90
42019;DHT22;27703;51.980;5.848;2023-10-19T01:38:25;11.70;99.90
42019;DHT22;27703;51.980;5.848;2023-10-19T01:40:51;11.70;99.90
42019;DHT22;27703;51.980;5.848;2023-10-19T01:43:17;11.70;99.90
42019;DHT22;27703;51.980;5.848;2023-10-19T01:45:56;11.80;99.90
42019;DHT22;27703;51.980;5.848;2023-10-19T01:48:22;11.80;99.90
42019;DHT22;27703;51.980;5.848;2023-10-19T01:51:02;11.80;99.90
42019;DHT22;27703;51.980;5.848;2023-10-19T01:53:33;11.80;99.90
42019;DHT22;27703;51.980;5.848;2023-10-19T01:56:00;11.80;99.90
42019;DHT22;27703;51.980;5.848;2023-10-19T01:58:26;11.90;99.90
42019;DHT22;27703;51.980;5.848;2023-10-19T02:00:54;11.90;99.90
42019;DHT22;27703;51.980;5.848;2023-10-19T02:03:28;11.90;99.90
42019;DHT22;27703;51.980;5.848;2023-10-19T02:05:58;11.90;99.90
42019;DHT22;27703;51.980;5.848;2023-10-19T02:08:25;11.90;99.90
42019;DHT22;27703;51.980;5.848;2023-10-19T02:10:52;12.00;99.90
42019;DHT22;27703;51.980;5.848;2023-10-19T02:13:19;12.00;99.90
42019;DHT22;27703;51.980;5.848;2023-10-19T02:15:45;12.00;99.90
42019;DHT22;27703;51.980;5.848;2023-10-19T02:18:10;12.00;99.90
42019;DHT22;27703;51.980;5.848;2023-10-19T02:20:37;12.10;99.90
42019;DHT22;27703;51.980;5.848;2023-10-19T02:23:07;12.10;99.90
42019;DHT22;27703;51.980;5.848;2023-10-19T02:25:33;12.10;99.90
42019;DHT22;27703;51.980;5.848;2023-10-19T02:28:05;12.10;99.90
42019;DHT22;27703;51.980;5.848;2023-10-19T02:30:35;12.20;99.90
42019;DHT22;27703;51.980;5.848;2023-10-19T02:33:01;12.20;99.90
42019;DHT22;27703;51.980;5.848;2023-10-19T02:35:27;12.20;99.90
42019;DHT22;27703;51.980;5.848;2023-10-19T02:37:55;12.30;99.90
42019;DHT22;27703;51.980;5.848;2023-10-19T02:40:22;12.20;99.90
42019;DHT22;27703;51.980;5.848;2023-10-19T02:42:49;12.30;99.90
42019;DHT22;27703;51.980;5.848;2023-10-19T02:45:19;12.40;99.90
42019;DHT22;27703;51.980;5.848;2023-10-19T02:47:45;12.40;99.90
42019;DHT22;27703;51.980;5.848;2023-10-19T02:50:12;12.40;99.90
42019;DHT22;27703;51.980;5.848;2023-10-19T02:52:42;12.40;99.90
42019;DHT22;27703;51.980;5.848;2023-10-19T02:55:09;12.40;99.90
42019;DHT22;27703;51.980;5.848;2023-10-19T02:57:36;12.40;99.90
42019;DHT22;27703;51.980;5.848;2023-10-19T03:00:02;12.50;99.90
42019;DHT22;27703;51.980;5.848;2023-10-19T03:02:34;12.50;99.90
42019;DHT22;27703;51.980;5.848;2023-10-19T03:05:02;12.60;99.90
42019;DHT22;27703;51.980;5.848;2023-10-19T03:07:34;12.60;99.90
42019;DHT22;27703;51.980;5.848;2023-10-19T03:10:00;12.60;99.90
42019;DHT22;27703;51.980;5.848;2023-10-19T03:12:27;12.50;99.90
42019;DHT22;27703;51.980;5.848;2023-10-19T03:14:53;12.60;99.90
42019;DHT22;27703;51.980;5.848;2023-10-19T03:17:18;12.70;99.90
42019;DHT22;27703;51.980;5.848;2023-10-19T03:19:44;12.70;99.90
42019;DHT22;27703;51.980;5.848;2023-10-19T03:22:11;12.70;99.90
42019;DHT22;27703;51.980;5.848;2023-10-19T03:24:37;12.80;99.90
42019;DHT22;27703;51.980;5.848;2023-10-19T03:27:10;12.90;99.90
42019;DHT22;27703;51.980;5.848;2023-10-19T03:29:49;12.90;99.90
42019;DHT22;27703;51.980;5.848;2023-10-19T03:32:22;13.00;99.90
42019;DHT22;27703;51.980;5.848;2023-10-19T03:34:54;13.00;99.90
42019;DHT22;27703;51.980;5.848;2023-10-19T03:37:26;13.10;99.90
42019;DHT22;27703;51.980;5.848;2023-10-19T03:39:54;13.20;99.90
42019;DHT22;27703;51.980;5.848;2023-10-19T03:42:24;13.20;99.90
42019;DHT22;27703;51.980;5.848;2023-10-19T03:44:58;13.20;99.90
42019;DHT22;27703;51.980;5.848;2023-10-19T03:47:25;13.30;99.90
42019;DHT22;27703;51.980;5.848;2023-10-19T03:50:04;13.30;99.90
42019;DHT22;27703;51.980;5.848;2023-10-19T03:52:35;13.40;99.90
42019;DHT22;27703;51.980;5.848;2023-10-19T03:55:03;13.40;99.90
42019;DHT22;27703;51.980;5.848;2023-10-19T03:57:36;13.30;99.90
42019;DHT22;27703;51.980;5.848;2023-10-19T04:00:07;13.30;99.90
42019;DHT22;27703;51.980;5.848;2023-10-19T04:02:36;13.30;99.90
42019;DHT22;27703;51.980;5.848;2023-10-19T04:05:04;13.30;99.90
42019;DHT22;27703;51.980;5.848;2023-10-19T04:07:30;13.20;99.90
42019;DHT22;27703;51.980;5.848;2023-10-19T04:09:58;13.20;99.90
42019;DHT22;27703;51.980;5.848;2023-10-19T04:12:24;13.20;99.90
42019;DHT22;27703;51.980;5.848;2023-10-19T04:14:50;13.20;99.90
42019;DHT22;27703;51.980;5.848;2023-10-19T04:17:16;13.30;99.90
42019;DHT22;27703;51.980;5.848;2023-10-19T04:19:47;13.30;99.90
42019;DHT22;27703;51.980;5.848;2023-10-19T04:22:14;13.30;99.90
42019;DHT22;27703;51.980;5.848;2023-10-19T04:24:50;13.30;99.90
42019;DHT22;27703;51.980;5.848;2023-10-19T04:27:16;13.30;99.90
42019;DHT22;27703;51.980;5.848;2023-10-19T04:29:41;13.40;99.90
42019;DHT22;27703;51.980;5.848;2023-10-19T04:32:09;13.40;99.90
42019;DHT22;27703;51.980;5.848;2023-10-19T04:34:39;13.40;99.90
42019;DHT22;27703;51.980;5.848;2023-10-19T04:37:05;13.40;99.90
42019;DHT22;27703;51.980;5.848;2023-10-19T04:39:32;13.40;99.90
42019;DHT22;27703;51.980;5.848;2023-10-19T04:41:58;13.40;99.90
42019;DHT22;27703;51.980;5.848;2023-10-19T04:44:25;13.40;99.90
42019;DHT22;27703;51.980;5.848;2023-10-19T04:46:50;13.40;99.90
42019;DHT22;27703;51.980;5.848;2023-10-19T04:49:16;13.40;99.90
42019;DHT22;27703;51.980;5.848;2023-10-19T04:51:42;13.40;99.90
42019;DHT22;27703;51.980;5.848;2023-10-19T04:54:09;13.40;99.90
42019;DHT22;27703;51.980;5.848;2023-10-19T04:56:34;13.30;99.90
42019;DHT22;27703;51.980;5.848;2023-10-19T04:59:02;13.30;99.90
42019;DHT22;27703;51.980;5.848;2023-10-19T05:01:28;13.30;99.90
42019;DHT22;27703;51.980;5.848;2023-10-19T05:03:53;13.30;99.90
42019;DHT22;27703;51.980;5.848;2023-10-19T05:06:19;13.20;99.90
42019;DHT22;27703;51.980;5.848;2023-10-19T05:08:44;13.20;99.90
42019;DHT22;27703;51.980;5.848;2023-10-19T05:11:12;13.20;99.90
42019;DHT22;27703;51.980;5.848;2023-10-19T05:13:37;13.10;99.90
42019;DHT22;27703;51.980;5.848;2023-10-19T05:16:04;13.10;99.90
42019;DHT22;27703;51.980;5.848;2023-10-19T05:18:30;13.10;99.90
42019;DHT22;27703;51.980;5.848;2023-10-19T05:20:56;13.00;99.90
42019;DHT22;27703;51.980;5.848;2023-10-19T05:23:26;13.00;99.90
42019;DHT22;27703;51.980;5.848;2023-10-19T05:26:03;13.00;99.90
42019;DHT22;27703;51.980;5.848;2023-10-19T05:28:29;12.90;99.90
42019;DHT22;27703;51.980;5.848;2023-10-19T05:30:54;12.90;99.90
42019;DHT22;27703;51.980;5.848;2023-10-19T05:33:20;12.80;99.90
42019;DHT22;27703;51.980;5.848;2023-10-19T05:35:49;12.80;99.90
42019;DHT22;27703;51.980;5.848;2023-10-19T05:38:16;12.80;99.90
42019;DHT22;27703;51.980;5.848;2023-10-19T05:40:42;12.80;99.90
42019;DHT22;27703;51.980;5.848;2023-10-19T05:43:11;12.80;99.90
42019;DHT22;27703;51.980;5.848;2023-10-19T05:45:37;12.80;99.90
42019;DHT22;27703;51.980;5.848;2023-10-19T05:48:03;12.80;99.90
42019;DHT22;27703;51.980;5.848;2023-10-19T05:50:34;12.80;99.90
42019;DHT22;27703;51.980;5.848;2023-10-19T05:53:01;12.90;99.90
42019;DHT22;27703;51.980;5.848;2023-10-19T05:55:26;12.80;99.90
42019;DHT22;27703;51.980;5.848;2023-10-19T05:57:52;12.90;99.90
42019;DHT22;27703;51.980;5.848;2023-10-19T06:00:17;12.90;99.90
42019;DHT22;27703;51.980;5.848;2023-10-19T06:02:46;13.00;99.90
42019;DHT22;27703;51.980;5.848;2023-10-19T06:05:13;13.00;99.90
42019;DHT22;27703;51.980;5.848;2023-10-19T06:07:46;13.00;99.90
42019;DHT22;27703;51.980;5.848;2023-10-19T06:10:14;13.10;99.90
42019;DHT22;27703;51.980;5.848;2023-10-19T06:12:47;13.10;99.90
42019;DHT22;27703;51.980;5.848;2023-10-19T06:15:14;13.20;99.90
42019;DHT22;27703;51.980;5.848;2023-10-19T06:17:41;13.20;99.90
42019;DHT22;27703;51.980;5.848;2023-10-19T06:20:08;13.20;99.90
42019;DHT22;27703;51.980;5.848;2023-10-19T06:22:48;13.30;99.90
42019;DHT22;27703;51.980;5.848;2023-10-19T06:25:20;13.30;99.90
42019;DHT22;27703;51.980;5.848;2023-10-19T06:27:47;13.30;99.90
42019;DHT22;27703;51.980;5.848;2023-10-19T06:30:13;13.30;99.90
42019;DHT22;27703;51.980;5.848;2023-10-19T06:32:45;13.40;99.90
42019;DHT22;27703;51.980;5.848;2023-10-19T06:35:11;13.40;99.90
42019;DHT22;27703;51.980;5.848;2023-10-19T06:37:36;13.40;99.90
42019;DHT22;27703;51.980;5.848;2023-10-19T06:40:02;13.50;99.90
42019;DHT22;27703;51.980;5.848;2023-10-19T06:42:28;13.60;99.90
42019;DHT22;27703;51.980;5.848;2023-10-19T06:44:53;13.60;99.90
42019;DHT22;27703;51.980;5.848;2023-10-19T06:47:21;13.60;99.90
42019;DHT22;27703;51.980;5.848;2023-10-19T06:49:48;13.60;99.90
42019;DHT22;27703;51.980;5.848;2023-10-19T06:52:14;13.60;99.90
42019;DHT22;27703;51.980;5.848;2023-10-19T06:54:41;13.60;99.90
42019;DHT22;27703;51.980;5.848;2023-10-19T06:57:07;13.60;99.90
42019;DHT22;27703;51.980;5.848;2023-10-19T06:59:35;13.60;99.90
42019;DHT22;27703;51.980;5.848;2023-10-19T07:02:01;13.70;99.90
42019;DHT22;27703;51.980;5.848;2023-10-19T07:04:28;13.80;99.90
42019;DHT22;27703;51.980;5.848;2023-10-19T07:06:53;13.80;99.90
42019;DHT22;27703;51.980;5.848;2023-10-19T07:09:19;13.80;99.90
42019;DHT22;27703;51.980;5.848;2023-10-19T07:11:44;13.80;99.90
42019;DHT22;27703;51.980;5.848;2023-10-19T07:14:11;13.80;99.90
42019;DHT22;27703;51.980;5.848;2023-10-19T07:16:41;13.80;99.90
42019;DHT22;27703;51.980;5.848;2023-10-19T07:19:06;13.80;99.90
42019;DHT22;27703;51.980;5.848;2023-10-19T07:21:34;13.90;99.90
42019;DHT22;27703;51.980;5.848;2023-10-19T07:24:02;13.90;99.90
42019;DHT22;27703;51.980;5.848;2023-10-19T07:26:31;13.90;99.90
42019;DHT22;27703;51.980;5.848;2023-10-19T07:28:59;14.00;99.90
42019;DHT22;27703;51.980;5.848;2023-10-19T07:31:25;14.00;99.90
42019;DHT22;27703;51.980;5.848;2023-10-19T07:33:55;14.00;99.90
42019;DHT22;27703;51.980;5.848;2023-10-19T07:36:24;14.00;99.90
42019;DHT22;27703;51.980;5.848;2023-10-19T07:38:50;14.00;99.90
42019;DHT22;27703;51.980;5.848;2023-10-19T07:41:17;14.10;99.90
42019;DHT22;27703;51.980;5.848;2023-10-19T07:43:43;14.10;99.90
42019;DHT22;27703;51.980;5.848;2023-10-19T07:46:12;14.10;99.90
42019;DHT22;27703;51.980;5.848;2023-10-19T07:48:37;14.10;99.90
42019;DHT22;27703;51.980;5.848;2023-10-19T07:51:03;14.10;99.90
42019;DHT22;27703;51.980;5.848;2023-10-19T07:53:29;14.10;99.90
42019;DHT22;27703;51.980;5.848;2023-10-19T07:55:55;14.10;99.90
42019;DHT22;27703;51.980;5.848;2023-10-19T07:58:22;14.10;99.90
42019;DHT22;27703;51.980;5.848;2023-10-19T08:00:48;14.20;99.90
42019;DHT22;27703;51.980;5.848;2023-10-19T08:03:13;14.20;99.90
42019;DHT22;27703;51.980;5.848;2023-10-19T08:05:41;14.30;99.90
42019;DHT22;27703;51.980;5.848;2023-10-19T08:08:08;14.30;99.90
42019;DHT22;27703;51.980;5.848;2023-10-19T08:10:34;14.40;99.90
42019;DHT22;27703;51.980;5.848;2023-10-19T08:13:00;14.40;99.90
42019;DHT22;27703;51.980;5.848;2023-10-19T08:15:26;14.40;99.90
42019;DHT22;27703;51.980;5.848;2023-10-19T08:17:54;14.40;99.90
42019;DHT22;27703;51.980;5.848;2023-10-19T08:20:20;14.50;99.90
42019;DHT22;27703;51.980;5.848;2023-10-19T08:22:50;14.50;99.90
42019;DHT22;27703;51.980;5.848;2023-10-19T08:25:16;14.60;99.90
42019;DHT22;27703;51.980;5.848;2023-10-19T08:27:43;14.60;99.90
42019;DHT22;27703;51.980;5.848;2023-10-19T08:30:16;14.60;99.90
42019;DHT22;27703;51.980;5.848;2023-10-19T08:32:43;14.70;99.90
42019;DHT22;27703;51.980;5.848;2023-10-19T08:35:13;14.70;99.90
42019;DHT22;27703;51.980;5.848;2023-10-19T08:37:39;14.70;99.90
42019;DHT22;27703;51.980;5.848;2023-10-19T08:40:12;14.70;99.90
42019;DHT22;27703;51.980;5.848;2023-10-19T08:42:42;14.80;99.90
42019;DHT22;27703;51.980;5.848;2023-10-19T08:45:09;14.70;99.90
42019;DHT22;27703;51.980;5.848;2023-10-19T08:47:36;14.80;99.90
42019;DHT22;27703;51.980;5.848;2023-10-19T08:50:03;14.70;99.90
42019;DHT22;27703;51.980;5.848;2023-10-19T08:52:30;14.80;99.90
42019;DHT22;27703;51.980;5.848;2023-10-19T08:54:57;14.80;99.90
42019;DHT22;27703;51.980;5.848;2023-10-19T08:57:23;14.80;99.90
42019;DHT22;27703;51.980;5.848;2023-10-19T08:59:49;14.90;99.90
42019;DHT22;27703;51.980;5.848;2023-10-19T09:02:15;14.90;99.90
42019;DHT22;27703;51.980;5.848;2023-10-19T09:04:42;14.90;99.90
42019;DHT22;27703;51.980;5.848;2023-10-19T09:07:09;14.90;99.90
42019;DHT22;27703;51.980;5.848;2023-10-19T09:09:36;15.00;99.90
42019;DHT22;27703;51.980;5.848;2023-10-19T09:12:07;15.00;99.90
42019;DHT22;27703;51.980;5.848;2023-10-19T09:14:34;15.10;99.90
42019;DHT22;27703;51.980;5.848;2023-10-19T09:17:01;15.10;99.90
42019;DHT22;27703;51.980;5.848;2023-10-19T09:19:37;15.10;99.90
42019;DHT22;27703;51.980;5.848;2023-10-19T09:22:03;15.10;99.90
42019;DHT22;27703;51.980;5.848;2023-10-19T09:24:45;15.10;99.90
42019;DHT22;27703;51.980;5.848;2023-10-19T09:27:12;15.10;99.90
42019;DHT22;27703;51.980;5.848;2023-10-19T09:29:38;15.10;99.90
42019;DHT22;27703;51.980;5.848;2023-10-19T09:32:05;15.20;99.90
42019;DHT22;27703;51.980;5.848;2023-10-19T09:34:32;15.20;99.90
42019;DHT22;27703;51.980;5.848;2023-10-19T09:37:04;15.30;99.90
42019;DHT22;27703;51.980;5.848;2023-10-19T09:39:32;15.30;99.90
42019;DHT22;27703;51.980;5.848;2023-10-19T09:42:07;15.50;99.90
42019;DHT22;27703;51.980;5.848;2023-10-19T09:47:10;15.70;99.90
42019;DHT22;27703;51.980;5.848;2023-10-19T09:49:41;15.70;99.90
42019;DHT22;27703;51.980;5.848;2023-10-19T09:52:08;15.80;99.90
42019;DHT22;27703;51.980;5.848;2023-10-19T09:57:16;15.90;99.90
42019;DHT22;27703;51.980;5.848;2023-10-19T09:59:45;15.90;99.90
42019;DHT22;27703;51.980;5.848;2023-10-19T10:02:15;16.00;99.90
42019;DHT22;27703;51.980;5.848;2023-10-19T10:04:43;16.20;99.90
42019;DHT22;27703;51.980;5.848;2023-10-19T10:07:14;16.30;99.90
42019;DHT22;27703;51.980;5.848;2023-10-19T10:09:42;16.50;99.90
42019;DHT22;27703;51.980;5.848;2023-10-19T10:12:23;16.60;99.90
42019;DHT22;27703;51.980;5.848;2023-10-19T10:14:59;16.80;99.90
42019;DHT22;27703;51.980;5.848;2023-10-19T10:17:28;17.00;99.90
42019;DHT22;27703;51.980;5.848;2023-10-19T10:22:39;17.30;99.90
42019;DHT22;27703;51.980;5.848;2023-10-19T10:25:07;17.30;99.90
42019;DHT22;27703;51.980;5.848;2023-10-19T10:27:36;17.30;99.90
42019;DHT22;27703;51.980;5.848;2023-10-19T10:30:04;17.40;99.90
42019;DHT22;27703;51.980;5.848;2023-10-19T10:32:46;17.40;99.90
42019;DHT22;27703;51.980;5.848;2023-10-19T10:38:10;17.30;99.90
42019;DHT22;27703;51.980;5.848;2023-10-19T10:40:46;17.20;99.90
42019;DHT22;27703;51.980;5.848;2023-10-19T10:43:13;17.20;99.90
42019;DHT22;27703;51.980;5.848;2023-10-19T10:45:39;17.10;99.90
42019;DHT22;27703;51.980;5.848;2023-10-19T10:48:11;17.20;99.90
42019;DHT22;27703;51.980;5.848;2023-10-19T10:50:37;17.20;99.90
42019;DHT22;27703;51.980;5.848;2023-10-19T10:53:05;17.20;99.90
42019;DHT22;27703;51.980;5.848;2023-10-19T10:55:30;17.20;99.90
42019;DHT22;27703;51.980;5.848;2023-10-19T10:57:58;17.20;99.90
42019;DHT22;27703;51.980;5.848;2023-10-19T11:00:25;17.20;99.90
42019;DHT22;27703;51.980;5.848;2023-10-19T11:05:26;17.10;99.90
42019;DHT22;27703;51.980;5.848;2023-10-19T11:10:39;17.00;99.90
42019;DHT22;27703;51.980;5.848;2023-10-19T11:13:15;17.00;99.90
42019;DHT22;27703;51.980;5.848;2023-10-19T11:15:54;17.00;99.90
42019;DHT22;27703;51.980;5.848;2023-10-19T11:18:32;17.00;99.90
42019;DHT22;27703;51.980;5.848;2023-10-19T11:21:00;17.20;99.90
42019;DHT22;27703;51.980;5.848;2023-10-19T11:23:46;17.30;99.90
42019;DHT22;27703;51.980;5.848;2023-10-19T11:26:16;17.50;99.90
42019;DHT22;27703;51.980;5.848;2023-10-19T11:28:42;17.70;99.90
42019;DHT22;27703;51.980;5.848;2023-10-19T11:31:18;18.00;99.90
42019;DHT22;27703;51.980;5.848;2023-10-19T11:33:48;18.20;99.90
42019;DHT22;27703;51.980;5.848;2023-10-19T11:36:15;18.30;99.90
42019;DHT22;27703;51.980;5.848;2023-10-19T11:38:42;18.30;99.90
42019;DHT22;27703;51.980;5.848;2023-10-19T11:41:09;18.20;99.90
42019;DHT22;27703;51.980;5.848;2023-10-19T11:43:35;18.20;99.90
42019;DHT22;27703;51.980;5.848;2023-10-19T11:46:01;18.10;99.90
42019;DHT22;27703;51.980;5.848;2023-10-19T11:48:30;18.10;99.90
42019;DHT22;27703;51.980;5.848;2023-10-19T11:50:56;18.30;99.90
42019;DHT22;27703;51.980;5.848;2023-10-19T11:53:21;18.40;99.90
42019;DHT22;27703;51.980;5.848;2023-10-19T11:55:47;18.40;99.90
42019;DHT22;27703;51.980;5.848;2023-10-19T11:58:14;18.30;99.90
42019;DHT22;27703;51.980;5.848;2023-10-19T12:00:40;18.20;99.90
42019;DHT22;27703;51.980;5.848;2023-10-19T12:03:09;18.30;99.90
42019;DHT22;27703;51.980;5.848;2023-10-19T12:05:36;18.40;99.90
42019;DHT22;27703;51.980;5.848;2023-10-19T12:08:02;18.40;99.90
42019;DHT22;27703;51.980;5.848;2023-10-19T12:10:28;18.40;99.90
42019;DHT22;27703;51.980;5.848;2023-10-19T12:13:03;18.40;99.90
42019;DHT22;27703;51.980;5.848;2023-10-19T12:15:31;18.40;99.90
42019;DHT22;27703;51.980;5.848;2023-10-19T12:17:58;18.30;99.90
42019;DHT22;27703;51.980;5.848;2023-10-19T12:20:23;18.20;99.90
42019;DHT22;27703;51.980;5.848;2023-10-19T12:22:49;18.20;99.90
42019;DHT22;27703;51.980;5.848;2023-10-19T12:25:20;18.20;99.90
42019;DHT22;27703;51.980;5.848;2023-10-19T12:27:46;18.20;99.90
42019;DHT22;27703;51.980;5.848;2023-10-19T12:30:12;18.20;99.90
42019;DHT22;27703;51.980;5.848;2023-10-19T12:32:50;18.10;99.90
42019;DHT22;27703;51.980;5.848;2023-10-19T12:35:16;18.10;99.90
42019;DHT22;27703;51.980;5.848;2023-10-19T12:37:47;18.10;99.90
42019;DHT22;27703;51.980;5.848;2023-10-19T12:40:16;18.00;99.90
42019;DHT22;27703;51.980;5.848;2023-10-19T12:42:56;17.90;99.90
42019;DHT22;27703;51.980;5.848;2023-10-19T12:45:23;17.90;99.90
42019;DHT22;27703;51.980;5.848;2023-10-19T12:47:49;17.80;99.90
42019;DHT22;27703;51.980;5.848;2023-10-19T12:50:15;17.80;99.90
42019;DHT22;27703;51.980;5.848;2023-10-19T12:52:41;17.80;99.90
42019;DHT22;27703;51.980;5.848;2023-10-19T12:55:07;17.70;99.90
42019;DHT22;27703;51.980;5.848;2023-10-19T12:57:34;17.70;99.90
42019;DHT22;27703;51.980;5.848;2023-10-19T13:00:00;17.60;99.90
42019;DHT22;27703;51.980;5.848;2023-10-19T13:02:45;17.60;99.90
42019;DHT22;27703;51.980;5.848;2023-10-19T13:05:11;17.60;99.90
42019;DHT22;27703;51.980;5.848;2023-10-19T13:07:41;17.60;99.90
42019;DHT22;27703;51.980;5.848;2023-10-19T13:10:07;17.50;99.90
42019;DHT22;27703;51.980;5.848;2023-10-19T13:12:33;17.50;99.90
42019;DHT22;27703;51.980;5.848;2023-10-19T13:14:58;17.50;99.90
42019;DHT22;27703;51.980;5.848;2023-10-19T13:17:24;17.50;99.90
42019;DHT22;27703;51.980;5.848;2023-10-19T13:19:50;17.50;99.90
42019;DHT22;27703;51.980;5.848;2023-10-19T13:22:20;17.40;99.90
42019;DHT22;27703;51.980;5.848;2023-10-19T13:24:47;17.40;99.90
42019;DHT22;27703;51.980;5.848;2023-10-19T13:27:12;17.40;99.90
42019;DHT22;27703;51.980;5.848;2023-10-19T13:29:39;17.40;99.90
42019;DHT22;27703;51.980;5.848;2023-10-19T13:32:05;17.30;99.90
42019;DHT22;27703;51.980;5.848;2023-10-19T13:34:31;17.30;99.90
42019;DHT22;27703;51.980;5.848;2023-10-19T13:36:56;17.30;99.90
42019;DHT22;27703;51.980;5.848;2023-10-19T13:39:22;17.30;99.90
42019;DHT22;27703;51.980;5.848;2023-10-19T13:41:51;17.20;99.90
42019;DHT22;27703;51.980;5.848;2023-10-19T13:44:19;17.20;99.90
42019;DHT22;27703;51.980;5.848;2023-10-19T13:46:47;17.20;99.90
42019;DHT22;27703;51.980;5.848;2023-10-19T13:49:12;17.30;99.90
42019;DHT22;27703;51.980;5.848;2023-10-19T13:51:38;17.20;99.90
42019;DHT22;27703;51.980;5.848;2023-10-19T13:54:05;17.10;99.90
42019;DHT22;27703;51.980;5.848;2023-10-19T13:56:30;17.20;99.90
42019;DHT22;27703;51.980;5.848;2023-10-19T13:58:56;17.20;99.90
42019;DHT22;27703;51.980;5.848;2023-10-19T14:01:22;17.30;99.90
42019;DHT22;27703;51.980;5.848;2023-10-19T14:03:51;17.30;99.90
42019;DHT22;27703;51.980;5.848;2023-10-19T14:06:20;17.30;99.90
42019;DHT22;27703;51.980;5.848;2023-10-19T14:08:45;17.30;99.90
42019;DHT22;27703;51.980;5.848;2023-10-19T14:11:12;17.30;99.90
42019;DHT22;27703;51.980;5.848;2023-10-19T14:13:39;17.30;99.90
42019;DHT22;27703;51.980;5.848;2023-10-19T14:16:08;17.20;99.90
42019;DHT22;27703;51.980;5.848;2023-10-19T14:18:34;17.20;99.90
42019;DHT22;27703;51.980;5.848;2023-10-19T14:21:00;17.20;99.90
42019;DHT22;27703;51.980;5.848;2023-10-19T14:23:26;17.20;99.90
42019;DHT22;27703;51.980;5.848;2023-10-19T14:25:52;17.20;99.90
42019;DHT22;27703;51.980;5.848;2023-10-19T14:28:18;17.20;99.90
42019;DHT22;27703;51.980;5.848;2023-10-19T14:30:43;17.10;99.90
42019;DHT22;27703;51.980;5.848;2023-10-19T14:33:10;17.10;99.90
42019;DHT22;27703;51.980;5.848;2023-10-19T14:35:37;17.10;99.90
42019;DHT22;27703;51.980;5.848;2023-10-19T14:38:07;17.10;99.90
42019;DHT22;27703;51.980;5.848;2023-10-19T14:40:35;17.00;99.90
42019;DHT22;27703;51.980;5.848;2023-10-19T14:43:00;17.00;99.90
42019;DHT22;27703;51.980;5.848;2023-10-19T14:45:27;17.00;99.90
42019;DHT22;27703;51.980;5.848;2023-10-19T14:47:58;17.00;99.90
42019;DHT22;27703;51.980;5.848;2023-10-19T14:50:24;16.90;99.90
42019;DHT22;27703;51.980;5.848;2023-10-19T14:52:51;16.90;99.90
42019;DHT22;27703;51.980;5.848;2023-10-19T14:55:18;17.00;99.90
42019;DHT22;27703;51.980;5.848;2023-10-19T14:57:46;17.00;99.90
42019;DHT22;27703;51.980;5.848;2023-10-19T15:00:15;17.00;99.90
42019;DHT22;27703;51.980;5.848;2023-10-19T15:02:47;16.90;99.90
42019;DHT22;27703;51.980;5.848;2023-10-19T15:05:13;16.90;99.90
42019;DHT22;27703;51.980;5.848;2023-10-19T15:07:41;16.90;99.90
42019;DHT22;27703;51.980;5.848;2023-10-19T15:10:09;16.90;99.90
42019;DHT22;27703;51.980;5.848;2023-10-19T15:12:36;16.80;99.90
42019;DHT22;27703;51.980;5.848;2023-10-19T15:15:02;16.80;99.90
42019;DHT22;27703;51.980;5.848;2023-10-19T15:17:28;16.80;99.90
42019;DHT22;27703;51.980;5.848;2023-10-19T15:19:54;16.80;99.90
42019;DHT22;27703;51.980;5.848;2023-10-19T15:22:19;16.80;99.90
42019;DHT22;27703;51.980;5.848;2023-10-19T15:24:45;16.70;99.90
42019;DHT22;27703;51.980;5.848;2023-10-19T15:27:10;16.70;99.90
42019;DHT22;27703;51.980;5.848;2023-10-19T15:29:36;16.70;99.90
42019;DHT22;27703;51.980;5.848;2023-10-19T15:32:01;16.70;99.90
42019;DHT22;27703;51.980;5.848;2023-10-19T15:34:27;16.70;99.90
42019;DHT22;27703;51.980;5.848;2023-10-19T15:36:54;16.60;99.90
42019;DHT22;27703;51.980;5.848;2023-10-19T15:39:20;16.60;99.90
42019;DHT22;27703;51.980;5.848;2023-10-19T15:41:46;16.60;99.90
42019;DHT22;27703;51.980;5.848;2023-10-19T15:44:12;16.60;99.90
42019;DHT22;27703;51.980;5.848;2023-10-19T15:46:37;16.60;99.90
42019;DHT22;27703;51.980;5.848;2023-10-19T15:49:05;16.60;99.90
42019;DHT22;27703;51.980;5.848;2023-10-19T15:51:34;16.60;99.90
42019;DHT22;27703;51.980;5.848;2023-10-19T15:53:59;16.60;99.90
42019;DHT22;27703;51.980;5.848;2023-10-19T15:56:27;16.60;99.90